sensor_id;sensor_type;location;lat;lon;timestamp;pressure;altitude;pressure_sealevel;temperature;humidity
44079;BME280;29744;49.078;12.878;2023-03-15T00:01:40;95502.44;;;15.34;34.06
44079;BME280;29744;49.078;12.878;2023-03-15T00:06:40;95515.53;;;15.32;34.42
44079;BME280;29744;49.078;12.878;2023-03-15T00:11:40;95538.63;;;15.29;34.19
44079;BME280;29744;49.078;12.878;2023-03-15T00:16:41;95536.28;;;15.28;34.36
44079;BME280;29744;49.078;12.878;2023-03-15T00:21:42;95540.44;;;15.25;34.33
44079;BME280;29744;49.078;12.878;2023-03-15T00:26:42;95543.84;;;15.22;34.31
44079;BME280;29744;49.078;12.878;2023-03-15T00:31:42;95565.81;;;15.21;34.39
44079;BME280;29744;49.078;12.878;2023-03-15T00:36:45;95599.34;;;15.20;34.48
44079;BME280;29744;49.078;12.878;2023-03-15T00:41:46;95593.50;;;15.18;34.11
44079;BME280;29744;49.078;12.878;2023-03-15T00:46:46;95605.00;;;15.14;34.64
44079;BME280;29744;49.078;12.878;2023-03-15T00:51:46;95601.88;;;15.12;34.41
44079;BME280;29744;49.078;12.878;2023-03-15T00:56:47;95619.56;;;15.10;34.66
44079;BME280;29744;49.078;12.878;2023-03-15T01:01:47;95640.38;;;15.09;34.33
44079;BME280;29744;49.078;12.878;2023-03-15T01:06:47;95647.25;;;15.07;34.39
44079;BME280;29744;49.078;12.878;2023-03-15T01:11:47;95649.50;;;15.05;34.25
44079;BME280;29744;49.078;12.878;2023-03-15T01:16:48;95652.56;;;15.03;34.46
44079;BME280;29744;49.078;12.878;2023-03-15T01:21:48;95646.69;;;15.01;34.63
44079;BME280;29744;49.078;12.878;2023-03-15T01:26:48;95645.47;;;14.99;34.41
44079;BME280;29744;49.078;12.878;2023-03-15T01:31:49;95658.53;;;14.97;34.18
44079;BME280;29744;49.078;12.878;2023-03-15T01:36:49;95662.69;;;14.94;34.30
44079;BME280;29744;49.078;12.878;2023-03-15T01:41:51;95665.75;;;14.93;34.43
44079;BME280;29744;49.078;12.878;2023-03-15T01:46:51;95663.38;;;14.91;34.61
44079;BME280;29744;49.078;12.878;2023-03-15T01:52:12;95682.19;;;14.88;34.58
44079;BME280;29744;49.078;12.878;2023-03-15T01:57:19;95680.63;;;14.87;34.63
44079;BME280;29744;49.078;12.878;2023-03-15T02:02:26;95677.13;;;14.86;34.63
44079;BME280;29744;49.078;12.878;2023-03-15T02:07:27;95678.59;;;14.83;34.33
44079;BME280;29744;49.078;12.878;2023-03-15T02:12:37;95687.81;;;14.82;34.60
44079;BME280;29744;49.078;12.878;2023-03-15T02:17:44;95685.03;;;14.79;34.89
44079;BME280;29744;49.078;12.878;2023-03-15T02:22:54;95693.47;;;14.77;34.58
44079;BME280;29744;49.078;12.878;2023-03-15T02:27:56;95704.59;;;14.76;34.49
44079;BME280;29744;49.078;12.878;2023-03-15T02:32:57;95707.66;;;14.74;34.72
44079;BME280;29744;49.078;12.878;2023-03-15T02:37:59;95702.59;;;14.73;34.60
44079;BME280;29744;49.078;12.878;2023-03-15T02:43:08;95710.25;;;14.71;34.38
44079;BME280;29744;49.078;12.878;2023-03-15T02:48:10;95713.28;;;14.69;34.57
44079;BME280;29744;49.078;12.878;2023-03-15T02:53:11;95728.25;;;14.67;35.03
44079;BME280;29744;49.078;12.878;2023-03-15T02:58:11;95734.78;;;14.66;34.78
44079;BME280;29744;49.078;12.878;2023-03-15T03:03:11;95737.81;;;14.64;34.85
44079;BME280;29744;49.078;12.878;2023-03-15T03:08:11;95752.44;;;14.63;35.03
44079;BME280;29744;49.078;12.878;2023-03-15T03:13:15;95761.22;;;14.60;34.80
44079;BME280;29744;49.078;12.878;2023-03-15T03:18:16;95774.69;;;14.60;34.68
44079;BME280;29744;49.078;12.878;2023-03-15T03:23:16;95773.91;;;14.60;34.85
44079;BME280;29744;49.078;12.878;2023-03-15T03:28:17;95790.44;;;14.58;34.67
44079;BME280;29744;49.078;12.878;2023-03-15T03:33:17;95800.78;;;14.56;35.07
44079;BME280;29744;49.078;12.878;2023-03-15T03:38:17;95810.00;;;14.55;35.07
44079;BME280;29744;49.078;12.878;2023-03-15T03:43:18;95821.91;;;14.54;35.10
44079;BME280;29744;49.078;12.878;2023-03-15T03:48:18;95836.53;;;14.53;34.97
44079;BME280;29744;49.078;12.878;2023-03-15T03:53:18;95840.34;;;14.52;35.15
44079;BME280;29744;49.078;12.878;2023-03-15T03:58:20;95862.28;;;14.50;35.12
44079;BME280;29744;49.078;12.878;2023-03-15T04:03:20;95880.38;;;14.50;34.93
44079;BME280;29744;49.078;12.878;2023-03-15T04:08:26;95906.56;;;14.49;34.63
44079;BME280;29744;49.078;12.878;2023-03-15T04:13:26;95920.41;;;14.48;35.13
44079;BME280;29744;49.078;12.878;2023-03-15T04:18:27;95929.63;;;14.47;35.01
44079;BME280;29744;49.078;12.878;2023-03-15T04:23:27;95936.13;;;14.46;34.98
44079;BME280;29744;49.078;12.878;2023-03-15T04:28:27;95945.69;;;14.43;34.75
44079;BME280;29744;49.078;12.878;2023-03-15T04:33:29;95955.69;;;14.43;34.71
44079;BME280;29744;49.078;12.878;2023-03-15T04:38:31;95954.91;;;14.42;35.17
44079;BME280;29744;49.078;12.878;2023-03-15T04:43:31;95946.81;;;14.42;34.58
44079;BME280;29744;49.078;12.878;2023-03-15T04:48:31;95975.03;;;14.45;34.66
44079;BME280;29744;49.078;12.878;2023-03-15T04:53:31;95975.47;;;14.47;35.00
44079;BME280;29744;49.078;12.878;2023-03-15T04:58:32;95990.66;;;14.52;34.83
44079;BME280;29744;49.078;12.878;2023-03-15T05:03:32;95999.78;;;14.59;34.58
44079;BME280;29744;49.078;12.878;2023-03-15T05:08:34;96006.69;;;14.69;35.02
44079;BME280;29744;49.078;12.878;2023-03-15T05:13:35;96028.16;;;14.77;34.79
44079;BME280;29744;49.078;12.878;2023-03-15T05:18:35;96030.44;;;14.88;34.76
44079;BME280;29744;49.078;12.878;2023-03-15T05:23:36;96045.88;;;14.99;34.69
44079;BME280;29744;49.078;12.878;2023-03-15T05:28:36;96057.06;;;15.10;34.65
44079;BME280;29744;49.078;12.878;2023-03-15T05:33:36;96075.19;;;15.22;34.57
44079;BME280;29744;49.078;12.878;2023-03-15T05:38:36;96079.81;;;15.33;34.32
44079;BME280;29744;49.078;12.878;2023-03-15T05:43:37;96083.97;;;15.43;34.50
44079;BME280;29744;49.078;12.878;2023-03-15T05:48:37;96096.69;;;15.55;34.10
44079;BME280;29744;49.078;12.878;2023-03-15T05:53:37;96107.06;;;15.65;34.39
44079;BME280;29744;49.078;12.878;2023-03-15T05:58:38;96111.66;;;15.76;34.08
44079;BME280;29744;49.078;12.878;2023-03-15T06:03:38;96119.34;;;15.87;34.06
44079;BME280;29744;49.078;12.878;2023-03-15T06:08:38;96140.06;;;15.95;34.04
44079;BME280;29744;49.078;12.878;2023-03-15T06:13:39;96148.06;;;16.03;34.21
44079;BME280;29744;49.078;12.878;2023-03-15T06:18:39;96159.44;;;16.09;33.76
44079;BME280;29744;49.078;12.878;2023-03-15T06:23:39;96170.03;;;16.14;33.84
44079;BME280;29744;49.078;12.878;2023-03-15T06:28:40;96175.22;;;16.19;33.82
44079;BME280;29744;49.078;12.878;2023-03-15T06:33:40;96190.78;;;16.22;33.67
44079;BME280;29744;49.078;12.878;2023-03-15T06:38:41;96192.34;;;16.23;34.06
44079;BME280;29744;49.078;12.878;2023-03-15T06:43:41;96202.81;;;16.25;33.46
44079;BME280;29744;49.078;12.878;2023-03-15T06:48:41;96221.44;;;16.26;33.76
44079;BME280;29744;49.078;12.878;2023-03-15T06:53:42;96226.06;;;16.26;33.82
44079;BME280;29744;49.078;12.878;2023-03-15T06:58:42;96233.03;;;16.27;33.45
44079;BME280;29744;49.078;12.878;2023-03-15T07:03:42;96233.72;;;16.24;33.54
44079;BME280;29744;49.078;12.878;2023-03-15T07:08:43;96250.75;;;16.24;33.50
44079;BME280;29744;49.078;12.878;2023-03-15T07:13:43;96254.56;;;16.23;33.79
44079;BME280;29744;49.078;12.878;2023-03-15T07:18:43;96263.81;;;16.22;33.31
44079;BME280;29744;49.078;12.878;2023-03-15T07:23:44;96267.66;;;16.21;33.72
44079;BME280;29744;49.078;12.878;2023-03-15T07:28:44;96274.53;;;16.19;33.84
44079;BME280;29744;49.078;12.878;2023-03-15T07:33:45;96282.19;;;16.17;33.23
44079;BME280;29744;49.078;12.878;2023-03-15T07:38:45;96283.66;;;16.14;33.60
44079;BME280;29744;49.078;12.878;2023-03-15T07:43:45;96285.91;;;16.12;33.54
44079;BME280;29744;49.078;12.878;2023-03-15T07:48:45;96292.78;;;16.09;33.47
44079;BME280;29744;49.078;12.878;2023-03-15T07:53:46;96290.41;;;16.08;33.49
44079;BME280;29744;49.078;12.878;2023-03-15T07:58:46;96282.97;;;16.05;33.91
44079;BME280;29744;49.078;12.878;2023-03-15T08:03:46;96283.31;;;16.03;33.65
44079;BME280;29744;49.078;12.878;2023-03-15T08:08:47;96281.28;;;16.00;33.58
44079;BME280;29744;49.078;12.878;2023-03-15T08:13:47;96296.28;;;15.98;33.60
44079;BME280;29744;49.078;12.878;2023-03-15T08:18:47;96303.13;;;15.95;33.62
44079;BME280;29744;49.078;12.878;2023-03-15T08:23:48;96298.06;;;15.94;33.36
44079;BME280;29744;49.078;12.878;2023-03-15T08:28:48;96304.47;;;15.89;33.77
44079;BME280;29744;49.078;12.878;2023-03-15T08:33:48;96301.66;;;15.86;33.83
44079;BME280;29744;49.078;12.878;2023-03-15T08:38:48;96319.34;;;15.83;33.90
44079;BME280;29744;49.078;12.878;2023-03-15T08:43:49;96319.22;;;15.80;33.71
44079;BME280;29744;49.078;12.878;2023-03-15T08:48:49;96314.44;;;15.76;33.70
44079;BME280;29744;49.078;12.878;2023-03-15T08:53:50;96322.09;;;15.74;33.03
44079;BME280;29744;49.078;12.878;2023-03-15T08:58:51;96318.41;;;15.46;31.21
44079;BME280;29744;49.078;12.878;2023-03-15T09:03:51;96328.84;;;15.14;30.56
44079;BME280;29744;49.078;12.878;2023-03-15T09:08:51;96334.03;;;14.99;30.96
44079;BME280;29744;49.078;12.878;2023-03-15T09:13:53;96339.16;;;14.92;30.60
44079;BME280;29744;49.078;12.878;2023-03-15T09:18:53;96349.50;;;14.90;30.78
44079;BME280;29744;49.078;12.878;2023-03-15T09:23:53;96345.22;;;14.89;31.26
44079;BME280;29744;49.078;12.878;2023-03-15T09:28:54;96342.50;;;14.89;31.17
44079;BME280;29744;49.078;12.878;2023-03-15T09:33:54;96343.28;;;14.89;31.38
44079;BME280;29744;49.078;12.878;2023-03-15T09:38:55;96351.06;;;14.91;31.39
44079;BME280;29744;49.078;12.878;2023-03-15T09:44:16;96349.50;;;14.90;31.20
44079;BME280;29744;49.078;12.878;2023-03-15T09:54:49;96346.47;;;14.91;31.86
44079;BME280;29744;49.078;12.878;2023-03-15T09:59:52;96347.25;;;14.92;31.49
44079;BME280;29744;49.078;12.878;2023-03-15T10:04:58;96353.44;;;14.92;31.96
44079;BME280;29744;49.078;12.878;2023-03-15T10:10:00;96359.63;;;14.93;31.99
44079;BME280;29744;49.078;12.878;2023-03-15T10:15:25;96354.56;;;14.91;31.87
44079;BME280;29744;49.078;12.878;2023-03-15T10:20:33;96356.94;;;14.93;32.19
44079;BME280;29744;49.078;12.878;2023-03-15T10:25:36;96360.75;;;14.92;32.23
44079;BME280;29744;49.078;12.878;2023-03-15T10:30:41;96359.63;;;14.93;32.16
44079;BME280;29744;49.078;12.878;2023-03-15T10:35:45;96363.44;;;14.92;32.31
44079;BME280;29744;49.078;12.878;2023-03-15T10:40:53;96361.88;;;14.91;32.37
44079;BME280;29744;49.078;12.878;2023-03-15T10:46:01;96368.38;;;14.90;32.67
44079;BME280;29744;49.078;12.878;2023-03-15T10:51:05;96381.88;;;14.90;32.71
44079;BME280;29744;49.078;12.878;2023-03-15T10:56:12;96381.09;;;14.89;32.17
44079;BME280;29744;49.078;12.878;2023-03-15T11:01:28;96379.50;;;14.88;32.79
44079;BME280;29744;49.078;12.878;2023-03-15T11:06:39;96374.13;;;14.88;32.47
44079;BME280;29744;49.078;12.878;2023-03-15T11:12:00;96380.97;;;14.86;32.94
44079;BME280;29744;49.078;12.878;2023-03-15T11:17:03;96374.44;;;14.87;32.42
44079;BME280;29744;49.078;12.878;2023-03-15T11:22:04;96364.75;;;14.86;32.78
44079;BME280;29744;49.078;12.878;2023-03-15T11:27:11;96346.97;;;14.85;33.06
44079;BME280;29744;49.078;12.878;2023-03-15T11:32:16;96348.88;;;14.84;33.19
44079;BME280;29744;49.078;12.878;2023-03-15T11:37:28;96343.81;;;14.82;32.86
44079;BME280;29744;49.078;12.878;2023-03-15T11:42:35;96340.00;;;14.83;32.76
44079;BME280;29744;49.078;12.878;2023-03-15T11:47:41;96340.66;;;14.80;32.80
44079;BME280;29744;49.078;12.878;2023-03-15T11:52:49;96328.28;;;14.79;32.98
44079;BME280;29744;49.078;12.878;2023-03-15T11:57:50;96317.00;;;14.77;32.86
44079;BME280;29744;49.078;12.878;2023-03-15T12:02:55;96315.09;;;14.78;33.11
44079;BME280;29744;49.078;12.878;2023-03-15T12:07:58;96318.91;;;14.77;33.36
44079;BME280;29744;49.078;12.878;2023-03-15T12:13:06;96308.44;;;14.75;32.92
44079;BME280;29744;49.078;12.878;2023-03-15T12:18:13;96310.34;;;14.75;33.21
44079;BME280;29744;49.078;12.878;2023-03-15T12:28:24;96306.41;;;14.72;33.24
44079;BME280;29744;49.078;12.878;2023-03-15T12:33:26;96303.72;;;14.72;32.95
44079;BME280;29744;49.078;12.878;2023-03-15T12:38:34;96288.63;;;14.71;33.05
44079;BME280;29744;49.078;12.878;2023-03-15T12:43:42;96293.56;;;14.69;33.32
44079;BME280;29744;49.078;12.878;2023-03-15T12:49:03;96294.22;;;14.66;33.60
44079;BME280;29744;49.078;12.878;2023-03-15T12:54:06;96296.91;;;14.66;33.33
44079;BME280;29744;49.078;12.878;2023-03-15T12:59:18;96307.72;;;14.66;33.43
44079;BME280;29744;49.078;12.878;2023-03-15T13:04:19;96299.16;;;14.64;33.32
44079;BME280;29744;49.078;12.878;2023-03-15T13:19:40;96305.19;;;14.61;33.76
44079;BME280;29744;49.078;12.878;2023-03-15T13:24:55;96301.25;;;14.59;33.40
44079;BME280;29744;49.078;12.878;2023-03-15T13:29:58;96299.66;;;14.58;33.48
44079;BME280;29744;49.078;12.878;2023-03-15T13:34:58;96312.38;;;14.57;33.32
44079;BME280;29744;49.078;12.878;2023-03-15T13:40:00;96317.31;;;14.55;33.80
44079;BME280;29744;49.078;12.878;2023-03-15T13:45:09;96314.16;;;14.53;33.92
44079;BME280;29744;49.078;12.878;2023-03-15T13:50:17;96323.34;;;14.52;33.59
44079;BME280;29744;49.078;12.878;2023-03-15T13:55:22;96329.06;;;14.50;33.95
44079;BME280;29744;49.078;12.878;2023-03-15T14:00:24;96330.53;;;14.48;33.77
44079;BME280;29744;49.078;12.878;2023-03-15T14:05:30;96335.13;;;14.47;33.48
44079;BME280;29744;49.078;12.878;2023-03-15T14:10:35;96339.25;;;14.45;33.93
44079;BME280;29744;49.078;12.878;2023-03-15T14:15:41;96337.69;;;14.44;33.53
44079;BME280;29744;49.078;12.878;2023-03-15T14:20:44;96349.59;;;14.43;33.88
44079;BME280;29744;49.078;12.878;2023-03-15T14:25:53;96351.50;;;14.42;33.71
44079;BME280;29744;49.078;12.878;2023-03-15T14:30:56;96357.53;;;14.39;34.02
44079;BME280;29744;49.078;12.878;2023-03-15T14:36:02;96360.56;;;14.38;33.72
44079;BME280;29744;49.078;12.878;2023-03-15T14:46:16;96359.63;;;14.34;33.69
44079;BME280;29744;49.078;12.878;2023-03-15T14:51:19;96354.22;;;14.34;34.24
44079;BME280;29744;49.078;12.878;2023-03-15T14:56:22;96344.88;;;14.31;34.03
44079;BME280;29744;49.078;12.878;2023-03-15T15:01:25;96350.59;;;14.30;34.25
44079;BME280;29744;49.078;12.878;2023-03-15T15:06:27;96351.72;;;14.29;34.30
44079;BME280;29744;49.078;12.878;2023-03-15T15:11:28;96352.38;;;14.26;34.26
44079;BME280;29744;49.078;12.878;2023-03-15T15:16:28;96349.66;;;14.26;34.24
44079;BME280;29744;49.078;12.878;2023-03-15T15:21:29;96356.16;;;14.25;34.09
44079;BME280;29744;49.078;12.878;2023-03-15T15:26:31;96360.31;;;14.22;34.06
44079;BME280;29744;49.078;12.878;2023-03-15T15:31:31;96352.50;;;14.21;34.48
44079;BME280;29744;49.078;12.878;2023-03-15T15:36:35;96363.28;;;14.21;34.00
44079;BME280;29744;49.078;12.878;2023-03-15T15:41:37;96368.22;;;14.18;33.95
44079;BME280;29744;49.078;12.878;2023-03-15T15:46:37;96374.72;;;14.17;33.98
44079;BME280;29744;49.078;12.878;2023-03-15T15:51:39;96365.84;;;14.17;33.98
44079;BME280;29744;49.078;12.878;2023-03-15T15:56:47;96377.28;;;14.14;34.47
44079;BME280;29744;49.078;12.878;2023-03-15T16:01:48;96399.19;;;14.12;34.37
44079;BME280;29744;49.078;12.878;2023-03-15T16:06:51;96404.56;;;14.12;34.07
44079;BME280;29744;49.078;12.878;2023-03-15T16:11:52;96412.66;;;14.12;34.32
44079;BME280;29744;49.078;12.878;2023-03-15T16:16:53;96416.16;;;14.13;34.01
44079;BME280;29744;49.078;12.878;2023-03-15T16:21:53;96420.91;;;14.16;34.42
44079;BME280;29744;49.078;12.878;2023-03-15T16:26:59;96402.97;;;14.20;33.95
44079;BME280;29744;49.078;12.878;2023-03-15T16:32:00;96418.81;;;14.30;34.17
44079;BME280;29744;49.078;12.878;2023-03-15T16:37:00;96418.81;;;14.39;33.85
44079;BME280;29744;49.078;12.878;2023-03-15T16:42:01;96418.91;;;14.51;34.28
44079;BME280;29744;49.078;12.878;2023-03-15T16:47:01;96422.84;;;14.62;34.37
44079;BME280;29744;49.078;12.878;2023-03-15T16:52:04;96434.22;;;14.76;33.93
44079;BME280;29744;49.078;12.878;2023-03-15T16:57:11;96446.69;;;14.90;33.90
44079;BME280;29744;49.078;12.878;2023-03-15T17:02:19;96454.25;;;15.05;34.07
44079;BME280;29744;49.078;12.878;2023-03-15T17:07:24;96464.50;;;15.20;33.73
44079;BME280;29744;49.078;12.878;2023-03-15T17:12:28;96474.75;;;15.35;33.38
44079;BME280;29744;49.078;12.878;2023-03-15T17:17:28;96479.56;;;15.51;33.45
44079;BME280;29744;49.078;12.878;2023-03-15T17:22:35;96487.44;;;15.64;33.42
44079;BME280;29744;49.078;12.878;2023-03-15T17:27:38;96497.34;;;15.81;33.61
44079;BME280;29744;49.078;12.878;2023-03-15T17:32:39;96497.88;;;15.95;33.20
44079;BME280;29744;49.078;12.878;2023-03-15T17:37:41;96508.09;;;16.10;33.28
44079;BME280;29744;49.078;12.878;2023-03-15T17:42:43;96520.22;;;16.25;33.23
44079;BME280;29744;49.078;12.878;2023-03-15T17:47:44;96526.47;;;16.38;32.90
44079;BME280;29744;49.078;12.878;2023-03-15T17:52:45;96523.81;;;16.50;33.15
44079;BME280;29744;49.078;12.878;2023-03-15T17:57:47;96528.84;;;16.60;33.07
44079;BME280;29744;49.078;12.878;2023-03-15T18:02:48;96536.09;;;16.68;32.78
44079;BME280;29744;49.078;12.878;2023-03-15T18:07:49;96538.56;;;16.73;32.93
44079;BME280;29744;49.078;12.878;2023-03-15T18:12:49;96541.06;;;16.79;32.49
44079;BME280;29744;49.078;12.878;2023-03-15T18:17:49;96545.47;;;16.83;32.55
44079;BME280;29744;49.078;12.878;2023-03-15T18:22:50;96558.69;;;16.85;32.70
44079;BME280;29744;49.078;12.878;2023-03-15T18:27:50;96555.97;;;16.85;32.69
44079;BME280;29744;49.078;12.878;2023-03-15T18:32:52;96565.22;;;16.84;31.95
44079;BME280;29744;49.078;12.878;2023-03-15T18:37:52;96564.78;;;16.82;32.09
44079;BME280;29744;49.078;12.878;2023-03-15T18:42:55;96575.94;;;16.80;31.82
44079;BME280;29744;49.078;12.878;2023-03-15T18:47:56;96576.28;;;16.79;32.32
44079;BME280;29744;49.078;12.878;2023-03-15T18:52:59;96584.72;;;16.77;32.00
44079;BME280;29744;49.078;12.878;2023-03-15T18:58:00;96577.75;;;16.76;32.33
44079;BME280;29744;49.078;12.878;2023-03-15T19:03:02;96582.03;;;16.77;31.91
44079;BME280;29744;49.078;12.878;2023-03-15T19:08:03;96594.78;;;16.77;31.89
44079;BME280;29744;49.078;12.878;2023-03-15T19:13:04;96596.69;;;16.76;31.85
44079;BME280;29744;49.078;12.878;2023-03-15T19:18:04;96591.28;;;16.76;32.05
44079;BME280;29744;49.078;12.878;2023-03-15T19:23:05;96601.78;;;16.78;31.70
44079;BME280;29744;49.078;12.878;2023-03-15T19:28:05;96604.50;;;16.78;31.84
44079;BME280;29744;49.078;12.878;2023-03-15T19:33:06;96616.09;;;16.78;31.88
44079;BME280;29744;49.078;12.878;2023-03-15T19:38:06;96612.59;;;16.78;31.63
44079;BME280;29744;49.078;12.878;2023-03-15T19:43:06;96613.72;;;16.77;32.01
44079;BME280;29744;49.078;12.878;2023-03-15T19:48:08;96627.94;;;16.73;31.77
44079;BME280;29744;49.078;12.878;2023-03-15T19:53:09;96625.91;;;16.70;31.78
44079;BME280;29744;49.078;12.878;2023-03-15T19:58:11;96634.34;;;16.69;31.61
44079;BME280;29744;49.078;12.878;2023-03-15T20:03:11;96639.66;;;16.65;31.64
44079;BME280;29744;49.078;12.878;2023-03-15T20:08:11;96639.53;;;16.62;31.67
44079;BME280;29744;49.078;12.878;2023-03-15T20:13:12;96640.19;;;16.59;31.83
44079;BME280;29744;49.078;12.878;2023-03-15T20:18:13;96644.69;;;16.55;31.59
44079;BME280;29744;49.078;12.878;2023-03-15T20:23:15;96647.22;;;16.51;31.68
44079;BME280;29744;49.078;12.878;2023-03-15T20:28:16;96647.09;;;16.48;31.70
44079;BME280;29744;49.078;12.878;2023-03-15T20:33:17;96653.97;;;16.45;31.97
44079;BME280;29744;49.078;12.878;2023-03-15T20:38:17;96653.81;;;16.41;31.70
44079;BME280;29744;49.078;12.878;2023-03-15T20:43:17;96655.25;;;16.39;32.18
44079;BME280;29744;49.078;12.878;2023-03-15T20:48:17;96672.16;;;16.36;31.98
44079;BME280;29744;49.078;12.878;2023-03-15T20:53:21;96677.44;;;16.32;32.00
44079;BME280;29744;49.078;12.878;2023-03-15T20:58:21;96681.59;;;16.30;31.75
44079;BME280;29744;49.078;12.878;2023-03-15T21:03:22;96681.44;;;16.26;31.68
44079;BME280;29744;49.078;12.878;2023-03-15T21:08:22;96675.91;;;16.23;31.64
44079;BME280;29744;49.078;12.878;2023-03-15T21:13:23;96690.09;;;16.20;31.86
44079;BME280;29744;49.078;12.878;2023-03-15T21:18:23;96705.84;;;16.18;31.87
44079;BME280;29744;49.078;12.878;2023-03-15T21:23:24;96715.75;;;16.14;32.14
44079;BME280;29744;49.078;12.878;2023-03-15T21:28:27;96718.00;;;16.12;31.65
44079;BME280;29744;49.078;12.878;2023-03-15T21:33:28;96717.06;;;16.07;31.67
44079;BME280;29744;49.078;12.878;2023-03-15T21:38:32;96717.72;;;16.04;31.87
44079;BME280;29744;49.078;12.878;2023-03-15T21:43:32;96725.34;;;16.02;31.97
44079;BME280;29744;49.078;12.878;2023-03-15T21:48:34;96735.25;;;15.98;32.07
44079;BME280;29744;49.078;12.878;2023-03-15T21:53:34;96731.59;;;15.94;32.04
44079;BME280;29744;49.078;12.878;2023-03-15T21:58:35;96738.78;;;15.90;32.22
44079;BME280;29744;49.078;12.878;2023-03-15T22:03:35;96733.22;;;15.87;32.20
44079;BME280;29744;49.078;12.878;2023-03-15T22:08:36;96735.78;;;15.83;31.98
44079;BME280;29744;49.078;12.878;2023-03-15T22:13:36;96745.34;;;15.81;31.82
44079;BME280;29744;49.078;12.878;2023-03-15T22:18:36;96746.28;;;15.76;32.48
44079;BME280;29744;49.078;12.878;2023-03-15T22:23:37;96750.44;;;15.73;32.28
44079;BME280;29744;49.078;12.878;2023-03-15T22:28:37;96752.50;;;15.68;32.07
44079;BME280;29744;49.078;12.878;2023-03-15T22:33:37;96752.84;;;15.66;32.44
44079;BME280;29744;49.078;12.878;2023-03-15T22:38:37;96752.69;;;15.63;32.30
44079;BME280;29744;49.078;12.878;2023-03-15T22:43:38;96758.75;;;15.60;32.44
44079;BME280;29744;49.078;12.878;2023-03-15T22:48:38;96765.91;;;15.56;32.31
44079;BME280;29744;49.078;12.878;2023-03-15T22:53:39;96767.34;;;15.53;32.17
44079;BME280;29744;49.078;12.878;2023-03-15T22:58:39;96773.72;;;15.49;32.57
44079;BME280;29744;49.078;12.878;2023-03-15T23:03:39;96770.53;;;15.46;32.43
44079;BME280;29744;49.078;12.878;2023-03-15T23:08:40;96764.97;;;15.43;32.74
44079;BME280;29744;49.078;12.878;2023-03-15T23:13:41;96764.03;;;15.39;32.33
44079;BME280;29744;49.078;12.878;2023-03-15T23:18:42;96760.84;;;15.37;32.47
44079;BME280;29744;49.078;12.878;2023-03-15T23:23:42;96767.22;;;15.32;32.50
44079;BME280;29744;49.078;12.878;2023-03-15T23:28:42;96759.75;;;15.29;32.37
44079;BME280;29744;49.078;12.878;2023-03-15T23:33:43;96763.09;;;15.26;32.51
44079;BME280;29744;49.078;12.878;2023-03-15T23:38:46;96754.53;;;15.24;32.66
44079;BME280;29744;49.078;12.878;2023-03-15T23:43:46;96754.38;;;15.21;32.77
44079;BME280;29744;49.078;12.878;2023-03-15T23:48:46;96765.03;;;15.17;32.54
44079;BME280;29744;49.078;12.878;2023-03-15T23:53:47;96762.16;;;15.13;32.80
44079;BME280;29744;49.078;12.878;2023-03-15T23:58:47;96774.41;;;15.11;33.04
